Time;durP1;ratioP1;P1;durP2;ratioP2;P2;SDS_P1;SDS_P2;PMS_P1;PMS_P2;Temp;Humidity;BMP_temperature;BMP_pressure;BME280_temperature;BME280_humidity;BME280_pressure;Samples;Min_cycle;Max_cycle;Signal;HPM_P1;HPM_P2
2021/12/06 17:05:52;;;;;;;39.78;8.88;;;;;;;;;;5060626;28;20397;-66
2021/12/06 17:08:18;;;;;;;36.47;10.88;;;;;;;;;;5038194;28;20044;-67
2021/12/06 17:11:08;;;;;;;39.47;9.65;;;;;;;;;;5035059;28;20026;-67
2021/12/06 17:13:35;;;;;;;33.17;9.55;;;;;;;;;;5035378;28;20108;-63
2021/12/06 17:16:05;;;;;;;41.45;10.20;;;;;;;;;;5040860;28;20055;-66
2021/12/06 17:18:35;;;;;;;43.80;14.98;;;;;;;;;;5038356;28;20053;-66
2021/12/06 17:21:08;;;;;;;41.45;13.38;;;;;;;;;;5072837;28;20033;-64
2021/12/06 17:23:37;;;;;;;43.08;15.80;;;;;;;;;;5043221;28;20392;-66
2021/12/06 17:26:13;;;;;;;39.33;13.15;;;;;;;;;;5035238;28;20428;-66
2021/12/06 17:28:40;;;;;;;52.05;12.25;;;;;;;;;;5057964;28;20079;-64
2021/12/06 17:31:07;;;;;;;45.90;13.90;;;;;;;;;;5035252;28;20060;-65
2021/12/06 17:33:42;;;;;;;47.80;16.25;;;;;;;;;;5037696;28;20025;-65
2021/12/06 17:36:08;;;;;;;45.92;14.38;;;;;;;;;;5036902;28;20061;-66
2021/12/06 17:38:35;;;;;;;37.83;11.95;;;;;;;;;;5039428;28;20091;-65
2021/12/06 17:41:01;;;;;;;51.85;16.27;;;;;;;;;;5038218;28;20057;-65
2021/12/06 17:43:27;;;;;;;44.08;15.60;;;;;;;;;;5029657;28;20108;-66
2021/12/06 17:45:53;;;;;;;58.63;18.67;;;;;;;;;;5034294;28;20028;-65
2021/12/06 17:48:19;;;;;;;58.85;23.00;;;;;;;;;;5041585;28;20040;-65
2021/12/06 17:50:45;;;;;;;52.47;15.60;;;;;;;;;;5030793;28;20073;-66
2021/12/06 17:53:11;;;;;;;44.95;15.18;;;;;;;;;;5041053;28;20029;-65
2021/12/06 17:55:38;;;;;;;80.75;31.90;;;;;;;;;;5034740;28;20045;-65
2021/12/06 17:58:16;;;;;;;84.03;33.70;;;;;;;;;;5040556;28;20037;-65
2021/12/06 18:00:52;;;;;;;70.70;27.92;;;;;;;;;;5046372;28;20037;-66
2021/12/06 18:03:18;;;;;;;53.72;20.80;;;;;;;;;;5078513;28;20379;-65
2021/12/06 18:05:44;;;;;;;51.95;16.33;;;;;;;;;;5045153;28;20124;-65
2021/12/06 18:08:10;;;;;;;64.22;17.02;;;;;;;;;;5036310;28;20025;-65
2021/12/06 18:10:36;;;;;;;52.45;16.83;;;;;;;;;;5034406;28;20122;-65
2021/12/06 18:13:03;;;;;;;51.80;18.45;;;;;;;;;;5040541;28;20033;-65
2021/12/06 18:15:29;;;;;;;46.88;12.20;;;;;;;;;;5029418;28;20029;-65
2021/12/06 18:17:55;;;;;;;39.40;12.55;;;;;;;;;;5020742;28;20040;-66
2021/12/06 18:20:21;;;;;;;35.10;9.10;;;;;;;;;;5024076;28;20478;-66
2021/12/06 18:22:47;;;;;;;52.88;13.25;;;;;;;;;;5028092;28;20502;-66
2021/12/06 18:25:13;;;;;;;85.88;32.03;;;;;;;;;;5023231;28;20025;-67
2021/12/06 18:27:39;;;;;;;49.97;14.13;;;;;;;;;;5026413;28;20045;-67
2021/12/06 18:30:06;;;;;;;48.63;14.75;;;;;;;;;;5028103;28;20036;-66
2021/12/06 18:32:32;;;;;;;55.53;21.48;;;;;;;;;;5029899;28;20025;-67
2021/12/06 18:35:00;;;;;;;49.75;22.15;;;;;;;;;;5018199;28;20029;-67
2021/12/06 18:37:28;;;;;;;23.90;7.90;;;;;;;;;;5027536;28;20037;-67
2021/12/06 18:40:01;;;;;;;15.75;6.78;;;;;;;;;;5026979;28;20488;-65
2021/12/06 18:42:29;;;;;;;38.47;13.82;;;;;;;;;;5023860;28;20026;-66
2021/12/06 18:44:55;;;;;;;26.80;7.72;;;;;;;;;;5020277;28;20025;-65
2021/12/06 18:47:25;;;;;;;26.63;8.50;;;;;;;;;;5030422;28;20037;-65
2021/12/06 18:49:51;;;;;;;14.75;5.57;;;;;;;;;;5030056;28;20022;-66
2021/12/06 18:52:17;;;;;;;23.90;8.20;;;;;;;;;;5017184;28;20029;-66
2021/12/06 18:54:44;;;;;;;24.25;7.68;;;;;;;;;;5023827;28;20036;-66
2021/12/06 18:57:10;;;;;;;26.27;10.48;;;;;;;;;;5027798;28;20103;-66
2021/12/06 18:59:36;;;;;;;31.48;13.20;;;;;;;;;;5037479;28;20048;-65
2021/12/06 19:02:02;;;;;;;30.23;9.88;;;;;;;;;;5045258;28;20017;-65
2021/12/06 19:04:28;;;;;;;37.55;8.13;;;;;;;;;;5022366;28;20140;-65
2021/12/06 19:06:54;;;;;;;30.02;9.10;;;;;;;;;;5021846;28;20511;-67
2021/12/06 19:09:21;;;;;;;35.35;9.25;;;;;;;;;;5021387;28;20035;-66
2021/12/06 19:11:47;;;;;;;33.65;9.98;;;;;;;;;;5023362;28;20473;-67
2021/12/06 19:14:13;;;;;;;55.53;21.45;;;;;;;;;;5022610;28;20036;-66
2021/12/06 19:16:39;;;;;;;61.35;21.67;;;;;;;;;;5031429;28;20465;-67
2021/12/06 19:19:05;;;;;;;49.17;19.88;;;;;;;;;;5032457;28;20045;-66
2021/12/06 19:21:31;;;;;;;50.08;20.08;;;;;;;;;;5033054;28;20110;-66
2021/12/06 19:23:58;;;;;;;78.97;23.73;;;;;;;;;;5027180;28;20113;-67
2021/12/06 19:26:24;;;;;;;76.95;27.10;;;;;;;;;;5031911;28;20033;-67
2021/12/06 19:28:53;;;;;;;53.45;16.63;;;;;;;;;;5030885;28;20030;-67
2021/12/06 19:31:19;;;;;;;49.60;14.35;;;;;;;;;;5022907;28;20028;-66
2021/12/06 19:33:45;;;;;;;48.47;14.82;;;;;;;;;;5024442;28;20033;-66
2021/12/06 19:36:12;;;;;;;63.38;17.00;;;;;;;;;;5051184;28;20028;-66
2021/12/06 19:38:38;;;;;;;37.80;11.27;;;;;;;;;;5041109;28;20040;-66
2021/12/06 19:41:04;;;;;;;28.88;7.38;;;;;;;;;;5027809;28;20017;-66
2021/12/06 19:43:30;;;;;;;33.63;6.05;;;;;;;;;;5031164;28;20100;-67
2021/12/06 19:45:57;;;;;;;25.98;5.10;;;;;;;;;;5029496;28;20033;-67
2021/12/06 19:48:26;;;;;;;25.27;6.80;;;;;;;;;;5028225;28;20040;-68
2021/12/06 19:50:52;;;;;;;22.45;6.65;;;;;;;;;;5023793;28;20052;-68
2021/12/06 19:53:18;;;;;;;36.97;6.53;;;;;;;;;;5020331;28;20029;-66
2021/12/06 19:55:47;;;;;;;31.60;6.80;;;;;;;;;;5022526;28;20108;-66
2021/12/06 19:58:13;;;;;;;30.73;7.15;;;;;;;;;;5022141;28;20116;-66
2021/12/06 20:00:39;;;;;;;27.63;6.93;;;;;;;;;;5020242;28;20109;-66
2021/12/06 20:03:07;;;;;;;27.80;6.25;;;;;;;;;;5025842;28;20035;-66
2021/12/06 20:05:33;;;;;;;28.05;6.30;;;;;;;;;;5021883;28;20049;-66
2021/12/06 20:08:00;;;;;;;31.05;8.30;;;;;;;;;;5022729;28;20025;-66
2021/12/06 20:10:26;;;;;;;32.97;8.55;;;;;;;;;;5029587;28;20499;-67
2021/12/06 20:12:52;;;;;;;32.90;6.63;;;;;;;;;;5028436;28;20021;-66
2021/12/06 20:15:18;;;;;;;37.38;8.35;;;;;;;;;;5029438;28;20068;-66
2021/12/06 20:17:45;;;;;;;36.28;11.50;;;;;;;;;;5027786;28;20036;-67
2021/12/06 20:20:12;;;;;;;38.88;10.38;;;;;;;;;;5028805;28;20124;-66
2021/12/06 20:22:38;;;;;;;25.10;9.00;;;;;;;;;;5029325;28;20527;-67
2021/12/06 20:25:04;;;;;;;43.67;10.27;;;;;;;;;;5028438;28;20029;-66
2021/12/06 20:27:30;;;;;;;27.63;8.15;;;;;;;;;;5029846;28;20025;-67
2021/12/06 20:29:57;;;;;;;30.52;8.23;;;;;;;;;;5029560;28;20108;-66
2021/12/06 20:32:23;;;;;;;28.67;7.75;;;;;;;;;;5030679;28;20484;-66
2021/12/06 20:34:49;;;;;;;35.55;7.03;;;;;;;;;;5031244;28;20427;-66
2021/12/06 20:37:15;;;;;;;38.45;7.53;;;;;;;;;;5030162;28;20373;-67
2021/12/06 20:39:42;;;;;;;21.02;4.93;;;;;;;;;;5030284;28;20116;-67
2021/12/06 20:42:08;;;;;;;28.05;6.57;;;;;;;;;;5030673;28;20471;-67
2021/12/06 20:44:34;;;;;;;30.25;6.57;;;;;;;;;;5029545;28;20026;-67
2021/12/06 20:47:00;;;;;;;20.52;5.78;;;;;;;;;;5026217;28;20033;-67
2021/12/06 20:49:26;;;;;;;30.27;10.07;;;;;;;;;;5028434;28;20108;-67
2021/12/06 20:51:52;;;;;;;50.92;17.75;;;;;;;;;;5027945;28;20032;-67
2021/12/06 20:54:19;;;;;;;28.38;11.73;;;;;;;;;;5029122;28;20117;-67
2021/12/06 20:56:45;;;;;;;33.85;10.57;;;;;;;;;;5029398;28;20104;-67
2021/12/06 20:59:12;;;;;;;41.50;10.80;;;;;;;;;;5028130;28;20044;-66
2021/12/06 21:01:38;;;;;;;37.28;9.38;;;;;;;;;;5028955;28;20031;-67
2021/12/06 21:04:05;;;;;;;32.45;8.70;;;;;;;;;;5028392;28;20061;-66
2021/12/06 21:06:36;;;;;;;33.45;9.07;;;;;;;;;;5028515;28;20412;-66
2021/12/06 21:09:04;;;;;;;38.22;8.10;;;;;;;;;;5030041;28;20356;-66
2021/12/06 21:11:45;;;;;;;43.33;7.45;;;;;;;;;;5025598;28;20373;-66
2021/12/06 21:14:15;;;;;;;27.48;4.95;;;;;;;;;;5026428;28;20037;-67
2021/12/06 21:16:41;;;;;;;22.80;5.88;;;;;;;;;;5016741;28;20030;-67
2021/12/06 21:19:08;;;;;;;30.85;6.00;;;;;;;;;;5016667;28;20509;-67
2021/12/06 21:21:36;;;;;;;32.15;7.30;;;;;;;;;;5019515;28;20026;-66
2021/12/06 21:24:02;;;;;;;28.80;5.80;;;;;;;;;;5019254;28;20052;-67
2021/12/06 21:26:28;;;;;;;23.40;5.38;;;;;;;;;;5025545;28;20084;-67
2021/12/06 21:28:54;;;;;;;23.17;5.97;;;;;;;;;;5026970;28;20053;-67
2021/12/06 21:31:21;;;;;;;32.88;8.88;;;;;;;;;;5027367;28;20017;-67
2021/12/06 21:33:48;;;;;;;33.65;7.85;;;;;;;;;;5026807;28;20036;-67
2021/12/06 21:36:14;;;;;;;30.92;8.25;;;;;;;;;;5020445;28;20492;-68
2021/12/06 21:38:40;;;;;;;31.05;7.85;;;;;;;;;;5017600;28;20030;-68
2021/12/06 21:41:07;;;;;;;31.55;7.65;;;;;;;;;;5024342;28;20033;-68
2021/12/06 21:43:33;;;;;;;35.53;6.80;;;;;;;;;;5019787;28;20026;-68
2021/12/06 21:45:59;;;;;;;24.70;6.95;;;;;;;;;;5025463;28;20392;-68
2021/12/06 21:48:25;;;;;;;26.27;6.57;;;;;;;;;;5029493;28;20026;-67
2021/12/06 21:50:51;;;;;;;26.10;6.60;;;;;;;;;;5023429;28;20022;-67
2021/12/06 21:53:17;;;;;;;32.30;6.65;;;;;;;;;;5020353;28;20026;-67
2021/12/06 21:55:43;;;;;;;27.35;5.95;;;;;;;;;;5028785;28;20098;-68
2021/12/06 21:58:09;;;;;;;25.35;4.85;;;;;;;;;;5032436;28;20029;-67
2021/12/06 22:00:36;;;;;;;19.85;5.25;;;;;;;;;;5033100;28;20079;-68
2021/12/06 22:03:07;;;;;;;23.30;5.55;;;;;;;;;;5032667;28;20030;-68
2021/12/06 22:05:34;;;;;;;22.30;6.75;;;;;;;;;;5020779;28;20061;-67
2021/12/06 22:08:00;;;;;;;36.92;7.32;;;;;;;;;;5024791;28;20025;-68
2021/12/06 22:10:26;;;;;;;27.25;7.13;;;;;;;;;;5021937;28;20029;-68
2021/12/06 22:12:53;;;;;;;30.27;6.63;;;;;;;;;;5031821;28;20032;-67
2021/12/06 22:15:19;;;;;;;32.13;4.80;;;;;;;;;;5021655;28;20040;-67
2021/12/06 22:17:45;;;;;;;26.27;3.80;;;;;;;;;;5023583;28;20484;-67
2021/12/06 22:20:12;;;;;;;15.68;3.95;;;;;;;;;;5031092;28;20490;-68
2021/12/06 22:22:38;;;;;;;24.30;5.55;;;;;;;;;;5020673;28;20037;-68
2021/12/06 22:25:04;;;;;;;26.77;4.75;;;;;;;;;;5020832;28;20069;-67
2021/12/06 22:27:33;;;;;;;23.75;5.55;;;;;;;;;;5022818;28;20018;-68
2021/12/06 22:29:59;;;;;;;25.30;4.88;;;;;;;;;;5023863;28;20022;-68
2021/12/06 22:32:26;;;;;;;29.40;7.07;;;;;;;;;;5020799;28;20017;-68
2021/12/06 22:34:52;;;;;;;38.67;11.35;;;;;;;;;;5023722;28;20033;-68
2021/12/06 22:37:18;;;;;;;39.30;11.68;;;;;;;;;;5017078;28;20026;-68
2021/12/06 22:39:50;;;;;;;41.33;13.25;;;;;;;;;;5023974;28;20037;-68
2021/12/06 22:42:17;;;;;;;31.15;9.25;;;;;;;;;;5020890;28;20426;-68
2021/12/06 22:44:43;;;;;;;53.15;13.18;;;;;;;;;;5026342;28;20026;-68
2021/12/06 22:47:09;;;;;;;50.17;12.48;;;;;;;;;;5027754;28;20112;-67
2021/12/06 22:49:35;;;;;;;42.85;12.32;;;;;;;;;;5023382;28;20025;-68
2021/12/06 22:52:01;;;;;;;39.03;8.43;;;;;;;;;;5022874;28;20060;-67
2021/12/06 22:54:27;;;;;;;36.83;6.30;;;;;;;;;;5031982;28;20026;-68
2021/12/06 22:56:53;;;;;;;28.02;5.75;;;;;;;;;;5031220;28;20037;-67
2021/12/06 22:59:19;;;;;;;25.52;8.40;;;;;;;;;;5031947;28;20469;-67
2021/12/06 23:01:45;;;;;;;29.15;7.28;;;;;;;;;;5032014;28;20430;-68
2021/12/06 23:04:11;;;;;;;37.72;5.95;;;;;;;;;;5031879;28;20050;-68
2021/12/06 23:06:39;;;;;;;22.58;5.13;;;;;;;;;;5030985;28;20388;-68
2021/12/06 23:09:07;;;;;;;18.08;4.53;;;;;;;;;;5030737;28;20370;-67
2021/12/06 23:11:33;;;;;;;20.42;3.78;;;;;;;;;;5032032;28;20025;-68
2021/12/06 23:14:01;;;;;;;24.17;3.88;;;;;;;;;;5032107;28;20397;-68
2021/12/06 23:16:27;;;;;;;25.50;4.13;;;;;;;;;;5031660;28;20026;-68
2021/12/06 23:18:53;;;;;;;17.90;3.90;;;;;;;;;;5031921;28;20053;-68
2021/12/06 23:21:19;;;;;;;21.77;4.45;;;;;;;;;;5031023;28;20030;-68
